createdAt,value
2023-01-03T00:02:34.945Z,8.44
2023-01-03T00:07:34.750Z,8.47
2023-01-03T00:12:31.730Z,8.31
2023-01-03T00:17:28.611Z,8.38
2023-01-03T00:22:25.848Z,8.33
2023-01-03T00:27:22.437Z,8.39
2023-01-03T00:32:19.066Z,8.37
2023-01-03T00:37:15.648Z,8.02
2023-01-03T00:42:12.991Z,7.99
2023-01-03T00:47:09.587Z,7.61
2023-01-03T00:52:07.969Z,7.37
2023-01-03T00:57:04.524Z,7.61
2023-01-03T01:02:01.871Z,7.52
2023-01-03T01:06:59.834Z,7.92
2023-01-03T01:11:56.654Z,7.27
2023-01-03T01:16:54.329Z,6.95
2023-01-03T01:21:51.861Z,7.20
2023-01-03T01:26:48.776Z,7.35
2023-01-03T01:31:46.053Z,7.04
2023-01-03T01:36:44.060Z,7.16
2023-01-03T01:42:19.676Z,7.24
2023-01-03T01:47:22.018Z,7.10
2023-01-03T01:52:20.105Z,7.21
2023-01-03T01:57:19.878Z,7.31
2023-01-03T02:02:20.406Z,7.40
2023-01-03T02:07:20.034Z,7.28
2023-01-03T02:12:40.815Z,7.53
2023-01-03T02:17:41.032Z,7.62
2023-01-03T02:23:02.382Z,7.61
2023-01-03T02:28:29.882Z,7.32
2023-01-03T02:33:32.622Z,7.22
2023-01-03T02:38:34.209Z,7.18
2023-01-03T02:43:32.711Z,7.01
2023-01-03T02:48:40.089Z,6.91
2023-01-03T02:53:39.001Z,7.44
2023-01-03T02:58:37.776Z,7.44
2023-01-03T03:03:36.444Z,7.48
2023-01-03T03:08:33.106Z,7.39
2023-01-03T03:13:34.394Z,7.46
2023-01-03T03:18:34.613Z,7.52
2023-01-03T03:23:53.528Z,7.20
2023-01-03T03:28:53.569Z,7.30
2023-01-03T03:33:51.756Z,7.37
2023-01-03T03:38:49.290Z,7.49
2023-01-03T03:44:23.727Z,7.33
2023-01-03T03:49:38.422Z,7.31
2023-01-03T03:54:38.556Z,7.12
2023-01-03T03:59:35.320Z,7.02
2023-01-03T04:04:35.548Z,7.00
2023-01-03T04:09:32.475Z,6.99
2023-01-03T04:14:29.869Z,7.05
2023-01-03T04:19:26.473Z,6.99
2023-01-03T04:24:23.072Z,6.87
2023-01-03T04:29:19.677Z,6.84
2023-01-03T04:34:16.899Z,6.74
2023-01-03T04:39:14.032Z,6.83
2023-01-03T04:44:10.607Z,6.67
2023-01-03T04:49:08.293Z,6.80
2023-01-03T04:54:05.925Z,6.84
2023-01-03T04:59:02.765Z,7.07
2023-01-03T05:04:00.013Z,6.91
2023-01-03T05:08:56.590Z,7.21
2023-01-03T05:13:54.266Z,6.89
2023-01-03T05:18:51.129Z,6.53
2023-01-03T05:24:05.590Z,6.57
2023-01-03T05:29:02.938Z,6.66
2023-01-03T05:34:02.442Z,6.31
2023-01-03T05:38:59.214Z,6.52
2023-01-03T05:43:55.766Z,6.44
2023-01-03T05:48:53.119Z,6.57
2023-01-03T05:53:50.745Z,6.53
2023-01-03T05:58:47.297Z,6.21
2023-01-03T06:03:44.586Z,6.16
2023-01-03T06:08:41.993Z,6.26
2023-01-03T06:13:38.799Z,6.23
2023-01-03T06:18:35.601Z,6.26
2023-01-03T06:23:32.206Z,6.36
2023-01-03T06:28:29.653Z,6.59
2023-01-03T06:33:26.283Z,6.78
2023-01-03T06:38:22.961Z,6.82
2023-01-03T06:43:19.748Z,6.72
2023-01-03T06:48:35.260Z,6.57
2023-01-03T06:53:35.239Z,6.55
2023-01-03T06:58:32.149Z,6.73
2023-01-03T07:03:29.376Z,7.15
2023-01-03T07:08:26.086Z,7.24
2023-01-03T07:13:42.834Z,7.41
2023-01-03T07:18:40.435Z,7.19
2023-01-03T07:23:44.503Z,7.31
2023-01-03T07:28:42.029Z,7.24
2023-01-03T07:46:12.700Z,7.41
2023-01-03T07:51:31.999Z,7.54
2023-01-03T07:56:47.333Z,7.65
2023-01-03T08:01:54.575Z,7.81
2023-01-03T08:07:04.912Z,7.89
2023-01-03T08:18:18.093Z,7.85
2023-01-03T08:23:22.327Z,7.72
2023-01-03T08:46:15.807Z,9.41
2023-01-03T09:10:47.042Z,9.68
2023-01-03T09:15:44.740Z,9.91
2023-01-03T09:20:45.090Z,9.90
2023-01-03T09:25:42.139Z,10.09
2023-01-03T09:30:41.222Z,10.37
2023-01-03T09:35:38.385Z,10.37
2023-01-03T09:40:50.814Z,10.79
2023-01-03T09:45:50.728Z,10.80
2023-01-03T09:56:32.246Z,11.15
2023-01-03T10:01:57.105Z,11.63
2023-01-03T10:06:59.916Z,11.68
2023-01-03T10:12:05.141Z,11.99
2023-01-03T10:17:09.581Z,12.37
2023-01-03T10:22:09.052Z,12.50
2023-01-03T10:27:08.624Z,12.87
2023-01-03T10:32:14.860Z,13.06
2023-01-03T10:37:16.920Z,13.36
2023-01-03T10:42:19.741Z,13.25
2023-01-03T10:47:20.990Z,13.41
2023-01-03T10:52:20.040Z,13.66
2023-01-03T10:57:41.848Z,13.49
2023-01-03T11:02:44.554Z,13.33
2023-01-03T11:07:53.417Z,13.58
2023-01-03T11:12:50.959Z,13.50
2023-01-03T11:17:57.123Z,13.48
2023-01-03T11:23:03.182Z,13.78
2023-01-03T11:28:17.975Z,13.83
2023-01-03T11:33:29.970Z,13.59
2023-01-03T11:38:57.830Z,13.79
2023-01-03T11:44:17.975Z,13.94
2023-01-03T11:55:48.628Z,13.92
2023-01-03T12:00:51.539Z,14.12
2023-01-03T12:05:54.062Z,14.36
2023-01-03T12:10:59.785Z,14.25
2023-01-03T12:16:02.348Z,14.21
2023-01-03T12:21:06.281Z,14.25
2023-01-03T12:26:08.677Z,14.24
2023-01-03T12:31:10.832Z,14.11
2023-01-03T12:36:30.266Z,14.06
2023-01-03T12:41:33.892Z,14.45
2023-01-03T12:46:33.394Z,14.26
2023-01-03T12:51:33.386Z,14.21
2023-01-03T12:56:47.915Z,14.18
2023-01-03T13:01:46.369Z,14.24
2023-01-03T13:06:48.871Z,14.29
2023-01-03T13:11:50.141Z,14.35
2023-01-03T13:16:48.227Z,14.23
2023-01-03T13:22:29.705Z,14.32
2023-01-03T13:27:39.498Z,14.28
2023-01-03T13:33:11.336Z,14.26
2023-01-03T13:38:24.431Z,14.41
2023-01-03T13:43:23.785Z,14.31
2023-01-03T13:48:29.404Z,14.29
2023-01-03T13:53:34.761Z,14.29
2023-01-03T13:58:39.099Z,14.33
2023-01-03T14:03:49.255Z,14.15
2023-01-03T14:09:23.404Z,14.24
2023-01-03T14:14:31.922Z,14.18
2023-01-03T14:19:52.529Z,14.09
2023-01-03T14:25:01.592Z,14.02
2023-01-03T14:30:02.719Z,14.19
2023-01-03T14:34:59.815Z,14.16
2023-01-03T14:40:21.008Z,14.06
2023-01-03T14:45:33.620Z,13.98
2023-01-03T14:50:41.359Z,13.88
2023-01-03T14:55:49.968Z,13.93
2023-01-03T15:01:01.231Z,13.81
2023-01-03T15:05:58.984Z,13.69
2023-01-03T15:10:59.179Z,13.73
2023-01-03T15:15:59.042Z,13.78
2023-01-03T15:20:56.933Z,13.60
2023-01-03T15:25:53.495Z,13.61
2023-01-03T15:30:51.899Z,13.47
2023-01-03T15:35:49.863Z,13.50
2023-01-03T15:40:48.597Z,13.56
2023-01-03T15:45:48.212Z,13.49
2023-01-03T15:50:48.861Z,13.39
2023-01-03T15:55:45.616Z,13.17
2023-01-03T16:00:42.316Z,13.02
2023-01-03T16:05:39.041Z,13.09
2023-01-03T16:10:36.753Z,13.16
2023-01-03T16:15:33.246Z,13.09
2023-01-03T16:20:29.893Z,13.03
2023-01-03T16:25:26.524Z,12.98
2023-01-03T16:30:23.875Z,12.98
2023-01-03T16:35:20.967Z,12.83
2023-01-03T16:40:19.370Z,12.88
2023-01-03T16:45:16.847Z,12.93
2023-01-03T16:50:15.414Z,12.91
2023-01-03T16:55:15.587Z,12.86
2023-01-03T17:00:17.529Z,12.77
2023-01-03T17:05:17.998Z,12.91
2023-01-03T17:10:22.282Z,13.02
2023-01-03T17:15:18.861Z,13.04
2023-01-03T17:20:21.688Z,13.06
2023-01-03T17:25:25.642Z,13.02
2023-01-03T17:30:28.056Z,13.06
2023-01-03T17:35:44.190Z,12.74
2023-01-03T17:40:42.644Z,12.41
2023-01-03T17:46:00.317Z,12.49
2023-01-03T17:51:04.603Z,12.70
2023-01-03T17:56:04.853Z,12.78
2023-01-03T18:01:07.483Z,12.40
2023-01-03T18:06:12.278Z,12.41
2023-01-03T18:11:14.534Z,12.53
2023-01-03T18:16:16.984Z,12.45
2023-01-03T18:21:16.574Z,12.41
2023-01-03T18:26:16.049Z,12.49
2023-01-03T18:31:16.860Z,12.43
2023-01-03T18:36:24.638Z,12.33
2023-01-03T18:41:22.995Z,12.41
2023-01-03T18:46:20.025Z,12.05
2023-01-03T18:51:18.137Z,11.95
2023-01-03T18:56:25.033Z,11.61
2023-01-03T19:01:23.665Z,11.30
2023-01-03T19:06:22.039Z,11.26
2023-01-03T19:17:42.553Z,11.16
2023-01-03T19:22:40.071Z,11.19
2023-01-03T19:27:37.909Z,10.90
2023-01-03T19:32:34.929Z,10.97
2023-01-03T19:37:32.135Z,11.09
2023-01-03T19:42:46.097Z,11.16
2023-01-03T19:47:42.971Z,11.25
2023-01-03T19:52:40.249Z,11.09
2023-01-03T19:57:46.935Z,11.16
2023-01-03T20:02:47.147Z,11.20
2023-01-03T20:07:45.437Z,11.59
2023-01-03T20:12:42.425Z,11.73
2023-01-03T20:17:43.075Z,11.65
2023-01-03T20:28:00.904Z,11.57
2023-01-03T20:32:57.777Z,11.64
2023-01-03T20:37:55.408Z,11.73
2023-01-03T20:42:52.614Z,11.66
2023-01-03T20:47:51.690Z,11.62
2023-01-03T20:52:48.223Z,11.54
2023-01-03T20:57:45.151Z,11.47
2023-01-03T21:02:42.374Z,11.55
2023-01-03T21:07:58.161Z,11.54
2023-01-03T21:12:54.770Z,11.56
2023-01-03T21:17:51.536Z,11.59
2023-01-03T21:22:48.951Z,11.46
2023-01-03T21:27:45.903Z,10.89
2023-01-03T21:32:42.868Z,10.70
2023-01-03T21:37:39.473Z,10.83
2023-01-03T21:42:58.427Z,10.95
2023-01-03T21:47:59.960Z,11.19
2023-01-03T21:52:56.875Z,11.23
2023-01-03T21:57:54.044Z,10.59
2023-01-03T22:03:08.718Z,10.35
2023-01-03T22:08:06.042Z,9.70
2023-01-03T22:13:05.038Z,9.66
2023-01-03T22:18:01.636Z,9.73
2023-01-03T22:22:59.017Z,10.06
2023-01-03T22:27:56.796Z,9.85
2023-01-03T22:32:55.546Z,9.71
2023-01-03T22:37:52.162Z,9.92
2023-01-03T22:42:48.778Z,10.14
2023-01-03T22:47:45.713Z,10.32
2023-01-03T22:52:42.939Z,10.32
2023-01-03T22:57:39.492Z,10.62
2023-01-03T23:02:41.536Z,10.81
2023-01-03T23:07:46.385Z,10.78
2023-01-03T23:12:59.151Z,10.89
2023-01-03T23:17:56.200Z,10.86
2023-01-03T23:22:59.182Z,10.77
2023-01-03T23:27:57.924Z,10.83
2023-01-03T23:32:54.582Z,10.95
2023-01-03T23:37:51.267Z,10.85
2023-01-03T23:42:47.933Z,10.95
2023-01-03T23:47:45.456Z,10.32
2023-01-03T23:52:42.167Z,9.56
2023-01-03T23:57:39.137Z,9.57
